createdAt,value
2017-09-18T00:01:05.588Z,4.00
2017-09-18T00:03:32.222Z,4.67
2017-09-18T00:05:58.846Z,3.93
2017-09-18T00:08:25.467Z,5.50
2017-09-18T00:10:52.078Z,4.67
2017-09-18T00:13:18.703Z,5.40
2017-09-18T00:15:45.339Z,5.33
2017-09-18T00:18:11.959Z,4.87
2017-09-18T00:20:38.603Z,3.80
2017-09-18T00:23:05.207Z,4.17
2017-09-18T00:25:31.860Z,5.37
2017-09-18T00:27:58.489Z,5.23
2017-09-18T00:30:25.111Z,4.20
2017-09-18T00:32:51.719Z,5.47
2017-09-18T00:35:18.334Z,5.70
2017-09-18T00:37:44.965Z,4.93
2017-09-18T00:40:11.645Z,4.80
2017-09-18T00:42:38.260Z,5.20
2017-09-18T00:45:04.881Z,4.53
2017-09-18T00:47:31.521Z,4.63
2017-09-18T00:49:58.150Z,4.40
2017-09-18T00:52:24.798Z,4.23
2017-09-18T00:54:51.598Z,5.27
2017-09-18T00:57:18.278Z,3.93
2017-09-18T00:59:44.928Z,6.20
2017-09-18T01:02:11.548Z,6.93
2017-09-18T01:04:38.162Z,5.57
2017-09-18T01:07:04.787Z,4.70
2017-09-18T01:09:31.438Z,4.37
2017-09-18T01:11:58.078Z,5.10
2017-09-18T01:14:24.699Z,4.80
2017-09-18T01:16:51.331Z,6.50
2017-09-18T01:19:17.962Z,9.13
2017-09-18T01:21:44.598Z,8.13
2017-09-18T01:24:11.206Z,9.13
2017-09-18T01:26:37.895Z,8.77
2017-09-18T01:29:04.679Z,7.50
2017-09-18T01:31:31.306Z,8.43
2017-09-18T01:33:57.943Z,8.67
2017-09-18T01:36:24.559Z,6.90
2017-09-18T01:38:51.214Z,9.60
2017-09-18T01:41:17.833Z,8.43
2017-09-18T01:43:44.477Z,9.17
2017-09-18T01:46:11.080Z,9.60
2017-09-18T01:48:37.731Z,9.50
2017-09-18T01:51:04.363Z,9.60
2017-09-18T01:53:30.989Z,9.37
2017-09-18T01:55:57.611Z,10.03
2017-09-18T01:58:24.251Z,8.50
2017-09-18T02:00:50.871Z,8.80
2017-09-18T02:03:17.519Z,8.83
2017-09-18T02:05:44.136Z,8.00
2017-09-18T02:08:10.777Z,9.03
2017-09-18T02:10:37.413Z,9.57
2017-09-18T02:13:04.054Z,9.13
2017-09-18T02:15:30.701Z,9.30
2017-09-18T02:17:57.335Z,9.83
2017-09-18T02:20:23.975Z,10.77
2017-09-18T02:22:50.586Z,11.27
2017-09-18T02:25:17.219Z,11.00
2017-09-18T02:27:43.831Z,9.93
2017-09-18T02:30:11.295Z,10.70
2017-09-18T02:32:37.928Z,10.10
2017-09-18T02:35:04.574Z,10.60
2017-09-18T02:37:31.207Z,9.40
2017-09-18T02:39:57.858Z,9.93
2017-09-18T02:42:24.508Z,9.30
2017-09-18T02:44:51.132Z,9.63
2017-09-18T02:47:17.797Z,10.27
2017-09-18T02:49:44.405Z,10.80
2017-09-18T02:52:11.044Z,13.13
2017-09-18T02:54:37.655Z,10.87
2017-09-18T02:57:04.303Z,10.60
2017-09-18T02:59:30.934Z,12.00
2017-09-18T03:01:57.590Z,10.23
2017-09-18T03:04:24.222Z,9.93
2017-09-18T03:06:50.850Z,12.10
2017-09-18T03:09:17.499Z,9.73
2017-09-18T03:11:44.158Z,10.43
2017-09-18T03:14:10.800Z,10.30
2017-09-18T03:16:37.434Z,12.40
2017-09-18T03:19:04.062Z,10.63
2017-09-18T03:21:30.719Z,11.40
2017-09-18T03:23:57.331Z,11.47
2017-09-18T03:26:23.979Z,10.33
2017-09-18T03:28:50.589Z,11.43
2017-09-18T03:31:17.246Z,10.57
2017-09-18T03:33:43.878Z,10.30
2017-09-18T03:36:10.514Z,12.20
2017-09-18T03:38:37.127Z,10.57
2017-09-18T03:41:03.740Z,10.73
2017-09-18T03:43:30.366Z,9.93
2017-09-18T03:45:56.988Z,10.10
2017-09-18T03:48:23.634Z,13.43
2017-09-18T03:50:50.245Z,9.80
2017-09-18T03:53:16.871Z,10.37
2017-09-18T03:55:43.511Z,10.40
2017-09-18T03:58:10.126Z,11.77
2017-09-18T04:00:36.843Z,11.67
2017-09-18T04:03:03.479Z,12.33
2017-09-18T04:05:30.100Z,11.27
2017-09-18T04:07:56.726Z,12.20
2017-09-18T04:10:23.346Z,12.60
2017-09-18T04:12:49.994Z,15.00
2017-09-18T04:15:16.649Z,12.40
2017-09-18T04:17:43.279Z,13.37
2017-09-18T04:20:09.917Z,14.40
2017-09-18T04:22:36.528Z,13.63
2017-09-18T04:25:03.159Z,13.10
2017-09-18T04:27:29.776Z,13.13
2017-09-18T04:29:56.420Z,12.90
2017-09-18T04:32:23.052Z,13.43
2017-09-18T04:34:49.671Z,14.87
2017-09-18T04:37:16.299Z,14.57
2017-09-18T04:39:42.932Z,14.87
2017-09-18T04:42:09.571Z,13.73
2017-09-18T04:44:36.231Z,15.70
2017-09-18T04:47:02.850Z,17.30
2017-09-18T04:49:29.498Z,16.30
2017-09-18T04:51:56.110Z,14.20
2017-09-18T04:54:22.754Z,14.13
2017-09-18T04:56:49.409Z,16.60
2017-09-18T04:59:16.038Z,13.33
2017-09-18T05:01:42.700Z,15.70
2017-09-18T05:04:09.322Z,13.40
2017-09-18T05:06:35.952Z,12.80
2017-09-18T05:09:02.579Z,11.77
2017-09-18T05:11:29.225Z,9.90
2017-09-18T05:13:56.011Z,11.13
2017-09-18T05:16:22.632Z,12.87
2017-09-18T05:18:49.292Z,11.97
2017-09-18T05:21:15.953Z,12.87
2017-09-18T05:23:42.587Z,11.47
2017-09-18T05:26:09.239Z,12.07
2017-09-18T05:28:35.849Z,12.63
2017-09-18T05:31:02.525Z,12.70
2017-09-18T05:33:29.158Z,10.80
2017-09-18T05:35:55.802Z,14.40
2017-09-18T05:38:22.436Z,12.83
2017-09-18T05:40:49.054Z,14.27
2017-09-18T05:43:15.719Z,14.73
2017-09-18T05:45:42.332Z,14.93
2017-09-18T05:48:08.976Z,15.20
2017-09-18T05:50:35.612Z,14.80
2017-09-18T05:53:02.239Z,14.07
2017-09-18T05:55:28.879Z,14.23
2017-09-18T05:57:55.497Z,12.67
2017-09-18T06:00:22.138Z,12.83
2017-09-18T06:02:48.750Z,13.73
2017-09-18T06:05:15.362Z,11.40
2017-09-18T06:07:42.032Z,11.80
2017-09-18T06:10:08.651Z,11.97
2017-09-18T06:12:35.302Z,12.23
2017-09-18T06:15:01.924Z,11.03
2017-09-18T06:17:28.563Z,10.53
2017-09-18T06:19:55.230Z,10.47
2017-09-18T06:22:21.875Z,9.93
2017-09-18T06:24:48.507Z,11.47
2017-09-18T06:27:15.136Z,9.87
2017-09-18T06:29:41.772Z,9.20
2017-09-18T06:32:08.398Z,9.60
2017-09-18T06:34:35.002Z,9.17
2017-09-18T06:37:01.669Z,11.30
2017-09-18T06:39:28.284Z,9.50
2017-09-18T06:41:54.931Z,9.23
2017-09-18T06:44:21.556Z,9.03
2017-09-18T06:46:48.190Z,9.27
2017-09-18T06:49:14.849Z,8.23
2017-09-18T06:51:41.458Z,9.70
2017-09-18T06:54:08.115Z,7.57
2017-09-18T06:56:34.732Z,8.80
2017-09-18T06:59:01.367Z,9.20
2017-09-18T07:01:28.021Z,9.43
2017-09-18T07:03:54.640Z,9.90
2017-09-18T07:06:21.278Z,9.80
2017-09-18T07:08:47.891Z,9.03
2017-09-18T07:11:14.506Z,10.60
2017-09-18T07:13:41.130Z,11.13
2017-09-18T07:16:07.767Z,8.73
2017-09-18T07:18:34.399Z,9.80
2017-09-18T07:21:01.020Z,11.03
2017-09-18T07:23:27.687Z,11.00
2017-09-18T07:25:54.326Z,12.23
2017-09-18T07:28:20.955Z,10.33
2017-09-18T07:30:47.609Z,12.50
2017-09-18T07:33:15.103Z,12.50
2017-09-18T07:35:41.743Z,12.00
2017-09-18T07:38:08.364Z,12.00
2017-09-18T07:40:35.013Z,10.87
2017-09-18T07:43:01.631Z,10.33
2017-09-18T07:45:28.262Z,10.93
2017-09-18T07:47:54.928Z,10.60
2017-09-18T07:50:21.543Z,10.50
2017-09-18T07:52:48.171Z,9.17
2017-09-18T07:55:14.806Z,10.43
2017-09-18T07:57:41.460Z,9.40
2017-09-18T08:00:08.090Z,10.83
2017-09-18T08:02:34.747Z,10.60
2017-09-18T08:05:01.395Z,9.20
2017-09-18T08:07:28.027Z,9.60
2017-09-18T08:09:54.635Z,9.13
2017-09-18T08:12:21.277Z,9.77
2017-09-18T08:14:47.902Z,10.17
2017-09-18T08:17:14.523Z,10.97
2017-09-18T08:19:41.151Z,9.03
2017-09-18T08:22:08.155Z,11.13
2017-09-18T08:24:34.795Z,11.13
2017-09-18T08:27:01.411Z,13.30
2017-09-18T08:29:28.058Z,15.57
2017-09-18T08:31:54.707Z,12.87
2017-09-18T08:34:21.367Z,12.70
2017-09-18T08:36:47.994Z,13.17
2017-09-18T08:39:14.639Z,15.90
2017-09-18T08:41:41.251Z,14.87
2017-09-18T08:44:07.875Z,15.70
2017-09-18T08:46:34.519Z,12.37
2017-09-18T08:49:01.142Z,14.07
2017-09-18T08:51:27.806Z,14.27
2017-09-18T08:53:54.418Z,12.87
2017-09-18T08:56:21.042Z,14.93
2017-09-18T08:58:47.703Z,15.30
2017-09-18T09:01:14.351Z,13.60
2017-09-18T09:03:41.109Z,14.63
2017-09-18T09:06:07.714Z,15.63
2017-09-18T09:08:34.370Z,18.10
2017-09-18T09:11:01.017Z,16.00
2017-09-18T09:13:27.664Z,17.03
2017-09-18T09:15:54.310Z,17.40
2017-09-18T09:18:20.954Z,18.27
2017-09-18T09:20:47.623Z,18.20
2017-09-18T09:23:14.263Z,16.90
2017-09-18T09:25:40.903Z,18.67
2017-09-18T09:28:07.539Z,18.00
2017-09-18T09:30:34.183Z,16.87
2017-09-18T09:33:00.832Z,19.33
2017-09-18T09:35:27.471Z,18.43
2017-09-18T09:37:54.121Z,19.93
2017-09-18T09:40:20.744Z,19.03
2017-09-18T09:42:47.400Z,20.77
2017-09-18T09:45:14.005Z,20.57
2017-09-18T09:47:40.658Z,19.10
2017-09-18T09:50:07.276Z,21.10
2017-09-18T09:52:33.906Z,20.03
2017-09-18T09:55:00.576Z,19.50
2017-09-18T09:57:27.520Z,18.67
2017-09-18T09:59:54.161Z,20.87
2017-09-18T10:02:20.800Z,21.53
2017-09-18T10:04:47.458Z,19.43
2017-09-18T10:07:14.098Z,17.77
2017-09-18T10:09:40.738Z,15.77
2017-09-18T10:12:07.379Z,16.17
2017-09-18T10:14:34.007Z,14.80
2017-09-18T10:17:00.665Z,15.87
2017-09-18T10:19:27.299Z,17.33
2017-09-18T10:21:53.934Z,18.93
2017-09-18T10:24:20.578Z,15.83
2017-09-18T10:26:47.215Z,21.00
2017-09-18T10:29:13.876Z,18.87
2017-09-18T10:31:40.507Z,19.07
2017-09-18T10:34:07.144Z,16.10
2017-09-18T10:36:33.787Z,17.17
2017-09-18T10:39:00.423Z,19.20
2017-09-18T10:41:27.043Z,18.70
2017-09-18T10:43:53.676Z,20.87
2017-09-18T10:46:20.319Z,19.17
2017-09-18T10:48:46.975Z,17.47
2017-09-18T10:51:13.591Z,16.73
2017-09-18T10:53:40.246Z,17.40
2017-09-18T10:56:06.875Z,16.07
2017-09-18T10:58:33.504Z,16.83
2017-09-18T11:01:00.127Z,16.60
2017-09-18T11:03:26.756Z,16.03
2017-09-18T11:05:53.428Z,16.20
2017-09-18T11:08:20.060Z,16.03
2017-09-18T11:10:46.718Z,15.93
2017-09-18T11:13:13.364Z,14.70
2017-09-18T11:15:40.019Z,15.27
2017-09-18T11:18:06.663Z,16.20
2017-09-18T11:20:33.295Z,17.67
2017-09-18T11:22:59.961Z,14.10
2017-09-18T11:25:26.587Z,15.30
2017-09-18T11:27:53.255Z,15.23
2017-09-18T11:30:19.895Z,14.50
2017-09-18T11:32:46.546Z,14.33
2017-09-18T11:35:13.166Z,12.53
2017-09-18T11:37:39.822Z,14.10
2017-09-18T11:40:06.486Z,12.97
2017-09-18T11:42:33.105Z,11.30
2017-09-18T11:44:59.775Z,12.87
2017-09-18T11:47:26.391Z,11.97
2017-09-18T11:49:53.079Z,10.17
2017-09-18T11:52:19.728Z,10.77
2017-09-18T11:54:46.352Z,9.17
2017-09-18T11:57:12.965Z,8.23
2017-09-18T11:59:39.599Z,7.63
2017-09-18T12:02:06.661Z,6.80
2017-09-18T12:04:33.279Z,7.30
2017-09-18T12:06:59.969Z,7.97
2017-09-18T12:09:26.638Z,7.87
2017-09-18T12:11:53.349Z,6.50
2017-09-18T12:14:20.269Z,7.77
2017-09-18T12:16:46.934Z,6.40
2017-09-18T12:19:13.583Z,5.67
2017-09-18T12:21:40.231Z,5.97
2017-09-18T12:24:06.839Z,5.83
2017-09-18T12:26:33.498Z,5.30
2017-09-18T12:29:00.111Z,4.80
2017-09-18T12:31:26.727Z,4.67
2017-09-18T12:33:53.371Z,4.70
2017-09-18T12:36:19.984Z,4.83
2017-09-18T12:38:46.632Z,4.57
2017-09-18T12:41:13.296Z,3.70
2017-09-18T12:43:39.934Z,3.40
2017-09-18T12:46:06.568Z,4.13
2017-09-18T12:48:33.206Z,3.30
2017-09-18T12:50:59.821Z,3.10
2017-09-18T12:53:26.462Z,3.30
2017-09-18T12:55:53.079Z,3.47
2017-09-18T12:58:19.691Z,3.03
2017-09-18T13:00:46.315Z,2.90
2017-09-18T13:03:12.942Z,2.03
2017-09-18T13:05:39.575Z,2.90
2017-09-18T13:08:06.253Z,1.37
2017-09-18T13:10:32.873Z,1.97
2017-09-18T13:12:59.515Z,2.33
2017-09-18T13:15:26.148Z,2.40
2017-09-18T13:17:52.772Z,2.57
2017-09-18T13:20:19.394Z,1.47
2017-09-18T13:22:46.034Z,1.77
2017-09-18T13:25:12.655Z,1.63
2017-09-18T13:27:39.347Z,1.70
2017-09-18T13:30:05.967Z,1.70
2017-09-18T13:32:32.596Z,1.97
2017-09-18T13:34:59.208Z,2.00
2017-09-18T13:37:25.819Z,1.63
2017-09-18T13:39:52.461Z,1.10
2017-09-18T13:42:19.097Z,1.57
2017-09-18T13:44:45.728Z,1.47
2017-09-18T13:47:12.350Z,1.33
2017-09-18T13:49:38.983Z,1.83
2017-09-18T13:52:05.636Z,1.70
2017-09-18T13:54:32.243Z,2.10
2017-09-18T13:56:58.885Z,1.57
2017-09-18T13:59:25.510Z,2.17
2017-09-18T14:01:52.119Z,2.27
2017-09-18T14:04:18.784Z,1.67
2017-09-18T14:06:45.394Z,1.97
2017-09-18T14:09:12.033Z,1.70
2017-09-18T14:11:38.660Z,1.63
2017-09-18T14:14:05.288Z,1.70
2017-09-18T14:16:31.928Z,1.60
2017-09-18T14:18:58.559Z,1.53
2017-09-18T14:21:25.196Z,1.77
2017-09-18T14:23:51.807Z,1.70
2017-09-18T14:26:18.428Z,2.03
2017-09-18T14:28:45.093Z,1.80
2017-09-18T14:31:11.718Z,1.77
2017-09-18T14:33:38.338Z,1.33
2017-09-18T14:36:04.993Z,1.60
2017-09-18T14:38:31.619Z,1.60
2017-09-18T14:40:58.281Z,3.00
2017-09-18T14:43:24.887Z,1.80
2017-09-18T14:45:51.500Z,1.90
2017-09-18T14:48:18.152Z,1.70
2017-09-18T14:50:44.798Z,1.57
2017-09-18T14:53:11.422Z,1.67
2017-09-18T14:55:38.054Z,1.90
2017-09-18T14:58:04.698Z,2.50
2017-09-18T15:00:31.337Z,3.77
2017-09-18T15:02:57.998Z,3.60
2017-09-18T15:05:24.651Z,3.80
2017-09-18T15:07:51.275Z,2.50
2017-09-18T15:10:17.898Z,2.23
2017-09-18T15:12:44.541Z,3.23
2017-09-18T15:15:11.193Z,2.60
2017-09-18T15:17:37.823Z,2.80
2017-09-18T15:20:04.458Z,2.83
2017-09-18T15:22:31.079Z,3.03
2017-09-18T15:24:57.729Z,3.13
2017-09-18T15:27:24.356Z,3.60
2017-09-18T15:29:50.987Z,2.70
2017-09-18T15:32:17.617Z,3.50
2017-09-18T15:34:44.255Z,3.23
2017-09-18T15:37:10.869Z,3.00
2017-09-18T15:39:37.947Z,4.07
2017-09-18T15:42:04.574Z,4.10
2017-09-18T15:44:31.203Z,4.50
2017-09-18T15:46:57.866Z,3.90
2017-09-18T15:49:24.475Z,3.73
2017-09-18T15:51:51.081Z,3.63
2017-09-18T15:54:17.722Z,3.53
2017-09-18T15:56:44.349Z,2.83
2017-09-18T15:59:11.010Z,2.90
2017-09-18T16:01:37.620Z,3.17
2017-09-18T16:04:04.235Z,3.23
2017-09-18T16:06:30.875Z,2.40
2017-09-18T16:08:57.525Z,2.40
2017-09-18T16:11:24.190Z,2.03
2017-09-18T16:13:50.834Z,1.90
2017-09-18T16:16:17.472Z,2.43
2017-09-18T16:18:44.114Z,2.60
2017-09-18T16:21:10.746Z,2.80
2017-09-18T16:23:37.360Z,2.50
2017-09-18T16:26:04.007Z,2.00
2017-09-18T16:28:30.644Z,2.53
2017-09-18T16:30:57.254Z,2.40
2017-09-18T16:33:23.906Z,2.87
2017-09-18T16:35:50.550Z,2.60
2017-09-18T16:38:17.164Z,2.00
2017-09-18T16:40:43.814Z,2.37
2017-09-18T16:43:10.455Z,2.43
2017-09-18T16:45:37.112Z,2.57
2017-09-18T16:48:03.716Z,2.37
2017-09-18T16:50:30.335Z,1.90
2017-09-18T16:52:56.986Z,2.50
2017-09-18T16:55:23.635Z,2.23
2017-09-18T16:57:50.267Z,2.40
2017-09-18T17:00:16.896Z,2.53
2017-09-18T17:02:43.540Z,2.23
2017-09-18T17:05:10.169Z,2.40
2017-09-18T17:07:36.804Z,2.80
2017-09-18T17:10:03.492Z,2.70
2017-09-18T17:12:30.101Z,3.23
2017-09-18T17:14:56.712Z,2.17
2017-09-18T17:17:23.385Z,3.50
2017-09-18T17:19:50.418Z,1.87
2017-09-18T17:22:17.038Z,2.50
2017-09-18T17:24:43.777Z,2.67
2017-09-18T17:27:10.405Z,3.13
2017-09-18T17:29:37.050Z,3.47
2017-09-18T17:32:03.716Z,2.93
2017-09-18T17:34:30.360Z,2.57
2017-09-18T17:36:57.004Z,3.00
2017-09-18T17:39:23.637Z,2.87
2017-09-18T17:41:50.288Z,3.27
2017-09-18T17:44:16.911Z,3.00
2017-09-18T17:46:43.646Z,2.60
2017-09-18T17:49:10.306Z,3.87
2017-09-18T17:51:36.930Z,3.23
2017-09-18T17:54:03.556Z,2.90
2017-09-18T17:56:30.201Z,4.63
2017-09-18T17:58:56.852Z,5.33
2017-09-18T18:01:23.484Z,6.30
2017-09-18T18:03:50.131Z,5.23
2017-09-18T18:06:16.738Z,3.13
2017-09-18T18:08:43.383Z,3.53
2017-09-18T18:11:09.999Z,5.67
2017-09-18T18:13:36.666Z,3.50
2017-09-18T18:16:03.284Z,3.60
2017-09-18T18:18:29.925Z,5.03
2017-09-18T18:20:56.585Z,4.80
2017-09-18T18:23:23.208Z,5.00
2017-09-18T18:25:49.836Z,4.60
2017-09-18T18:28:16.483Z,4.87
2017-09-18T18:30:43.105Z,4.80
2017-09-18T18:33:09.751Z,5.47
2017-09-18T18:35:36.407Z,6.83
2017-09-18T18:38:03.043Z,8.03
2017-09-18T18:40:29.687Z,9.43
2017-09-18T18:42:56.309Z,8.03
2017-09-18T18:45:22.959Z,8.30
2017-09-18T18:47:49.608Z,7.57
2017-09-18T18:50:16.234Z,7.00
2017-09-18T18:52:42.956Z,7.47
2017-09-18T18:55:09.572Z,8.30
2017-09-18T18:57:36.197Z,8.23
2017-09-18T19:00:02.858Z,8.73
2017-09-18T19:02:29.480Z,9.87
2017-09-18T19:04:56.135Z,10.00
2017-09-18T19:07:22.774Z,8.40
2017-09-18T19:09:49.430Z,8.70
2017-09-18T19:12:16.093Z,9.67
2017-09-18T19:14:42.730Z,9.60
2017-09-18T19:17:09.367Z,9.60
2017-09-18T19:19:36.027Z,9.33
2017-09-18T19:22:02.686Z,8.93
2017-09-18T19:24:29.324Z,9.53
2017-09-18T19:26:55.979Z,9.53
2017-09-18T19:29:22.597Z,9.77
2017-09-18T19:31:49.251Z,10.17
2017-09-18T19:34:15.907Z,9.27
2017-09-18T19:36:42.531Z,8.80
2017-09-18T19:39:09.202Z,9.83
2017-09-18T19:41:35.875Z,10.20
2017-09-18T19:44:02.517Z,9.70
2017-09-18T19:46:29.147Z,10.10
2017-09-18T19:48:55.810Z,10.20
2017-09-18T19:51:22.479Z,12.03
2017-09-18T19:53:49.120Z,10.33
2017-09-18T19:56:15.746Z,9.57
2017-09-18T19:58:42.427Z,11.13
2017-09-18T20:01:09.059Z,10.60
2017-09-18T20:03:35.692Z,11.00
2017-09-18T20:06:02.328Z,10.17
2017-09-18T20:08:28.996Z,12.20
2017-09-18T20:10:55.716Z,10.20
2017-09-18T20:13:22.346Z,10.10
2017-09-18T20:15:49.021Z,11.43
2017-09-18T20:18:15.669Z,9.80
2017-09-18T20:20:42.320Z,10.30
2017-09-18T20:23:08.937Z,11.10
2017-09-18T20:25:35.568Z,10.83
2017-09-18T20:28:02.234Z,11.90
2017-09-18T20:30:28.919Z,10.67
2017-09-18T20:32:55.546Z,12.63
2017-09-18T20:35:22.163Z,11.30
2017-09-18T20:37:48.784Z,13.07
2017-09-18T20:40:15.427Z,12.20
2017-09-18T20:42:42.097Z,12.37
2017-09-18T20:45:08.752Z,12.80
2017-09-18T20:47:35.379Z,12.37
2017-09-18T20:50:02.033Z,13.13
2017-09-18T20:52:28.657Z,13.63
2017-09-18T20:54:55.292Z,13.07
2017-09-18T20:57:21.951Z,14.43
2017-09-18T20:59:48.587Z,15.77
2017-09-18T21:02:15.222Z,15.33
2017-09-18T21:04:41.853Z,16.67
2017-09-18T21:07:08.493Z,16.50
2017-09-18T21:09:35.955Z,14.80
2017-09-18T21:12:02.608Z,15.70
2017-09-18T21:14:29.281Z,15.70
2017-09-18T21:16:55.939Z,14.40
2017-09-18T21:19:22.580Z,16.27
2017-09-18T21:21:49.223Z,17.80
2017-09-18T21:24:15.875Z,15.90
2017-09-18T21:26:42.490Z,17.80
2017-09-18T21:29:09.120Z,15.80
2017-09-18T21:31:36.324Z,18.47
2017-09-18T21:34:02.969Z,19.07
2017-09-18T21:36:29.584Z,17.13
2017-09-18T21:38:56.230Z,19.57
2017-09-18T21:41:22.889Z,19.37
2017-09-18T21:43:49.507Z,19.47
2017-09-18T21:46:16.139Z,18.87
2017-09-18T21:48:42.764Z,19.70
2017-09-18T21:51:09.420Z,18.70
2017-09-18T21:53:36.052Z,18.20
2017-09-18T21:56:02.719Z,18.23
2017-09-18T21:58:29.338Z,20.00
2017-09-18T22:00:55.960Z,22.03
2017-09-18T22:03:22.588Z,18.93
2017-09-18T22:05:49.234Z,21.60
2017-09-18T22:08:15.858Z,21.90
2017-09-18T22:10:42.512Z,19.47
2017-09-18T22:13:09.146Z,21.77
2017-09-18T22:15:35.826Z,24.17
2017-09-18T22:18:02.473Z,19.63
2017-09-18T22:20:29.096Z,24.50
2017-09-18T22:22:55.746Z,23.07
2017-09-18T22:25:22.409Z,22.00
2017-09-18T22:27:49.062Z,23.17
2017-09-18T22:30:15.689Z,22.97
2017-09-18T22:32:42.327Z,23.33
2017-09-18T22:35:08.945Z,25.43
2017-09-18T22:37:35.586Z,27.33
2017-09-18T22:40:02.210Z,24.10
2017-09-18T22:42:28.847Z,25.73
2017-09-18T22:44:55.500Z,25.00
2017-09-18T22:47:22.142Z,26.67
2017-09-18T22:49:48.770Z,29.70
2017-09-18T22:52:15.402Z,25.73
2017-09-18T22:54:42.044Z,28.90
2017-09-18T22:57:08.670Z,29.70
2017-09-18T22:59:35.307Z,27.23
2017-09-18T23:02:01.939Z,28.57
2017-09-18T23:04:28.579Z,25.37
2017-09-18T23:06:55.196Z,32.07
2017-09-18T23:09:21.845Z,27.10
2017-09-18T23:11:48.463Z,30.27
2017-09-18T23:14:15.110Z,30.40
2017-09-18T23:16:41.726Z,32.50
2017-09-18T23:19:08.346Z,27.50
2017-09-18T23:21:34.975Z,31.43
2017-09-18T23:24:01.612Z,29.60
2017-09-18T23:26:28.263Z,30.43
2017-09-18T23:28:54.896Z,28.17
2017-09-18T23:31:21.564Z,29.03
2017-09-18T23:33:48.227Z,30.33
2017-09-18T23:36:14.842Z,32.37
2017-09-18T23:38:41.476Z,30.03
2017-09-18T23:41:08.128Z,26.57
2017-09-18T23:43:34.747Z,27.20
2017-09-18T23:46:01.410Z,29.27
2017-09-18T23:48:28.026Z,33.00
2017-09-18T23:50:54.662Z,29.83
2017-09-18T23:53:21.311Z,30.23
2017-09-18T23:55:47.920Z,31.50
2017-09-18T23:58:14.547Z,33.43
